Аэропорт: Чертовицкое. Воронеж

ICAO: UUOO

METAR:
2022-06-26 11:00:00
UUOO 261100Z 04006MPS CAVOK 29/12 Q1018 R12/010070 NOSIG RMK QFE749
METAR:
2022-06-26 08:00:00
TAF UUOO 260800Z 2609/2618 05003G08MPS CAVOK